createdAt,value
2023-04-14T00:00:22.476Z,2.40
2023-04-14T00:05:23.985Z,2.30
2023-04-14T00:10:25.778Z,1.95
2023-04-14T00:15:27.228Z,2.10
2023-04-14T00:20:28.669Z,1.90
2023-04-14T00:25:30.097Z,2.40
2023-04-14T00:30:31.686Z,1.95
2023-04-14T00:35:33.265Z,3.15
2023-04-14T00:40:34.982Z,2.58
2023-04-14T00:45:42.928Z,2.60
2023-04-14T00:50:44.685Z,1.98
2023-04-14T00:55:47.265Z,1.92
2023-04-14T01:00:53.983Z,2.30
2023-04-14T01:05:55.458Z,2.30
2023-04-14T01:11:14.506Z,2.03
2023-04-14T01:16:22.150Z,1.98
2023-04-14T01:21:26.414Z,2.50
2023-04-14T01:26:32.535Z,2.15
2023-04-14T01:31:36.887Z,1.70
2023-04-14T01:36:41.980Z,2.10
2023-04-14T01:41:46.248Z,2.03
2023-04-14T01:46:49.737Z,1.80
2023-04-14T01:51:51.926Z,2.10
2023-04-14T01:56:53.578Z,2.38
2023-04-14T02:01:55.976Z,1.95
2023-04-14T02:07:00.199Z,2.05
2023-04-14T02:12:03.523Z,2.25
2023-04-14T02:17:05.919Z,2.13
2023-04-14T02:22:07.865Z,2.75
2023-04-14T02:27:11.331Z,2.55
2023-04-14T02:32:17.418Z,2.00
2023-04-14T02:37:21.973Z,2.72
2023-04-14T02:42:26.895Z,2.35
2023-04-14T02:47:40.331Z,2.42
2023-04-14T02:52:42.401Z,1.98
2023-04-14T02:57:44.216Z,2.63
2023-04-14T03:02:46.384Z,2.10
2023-04-14T03:07:48.273Z,2.25
2023-04-14T03:12:50.700Z,3.53
2023-04-14T03:17:56.123Z,2.63
2023-04-14T03:23:01.794Z,2.67
2023-04-14T03:28:04.373Z,2.90
2023-04-14T03:33:11.945Z,3.05
2023-04-14T03:38:15.442Z,3.33
2023-04-14T03:43:23.863Z,2.60
2023-04-14T03:48:29.963Z,3.03
2023-04-14T03:53:32.005Z,2.97
2023-04-14T03:58:34.398Z,2.90
2023-04-14T04:03:37.004Z,2.88
2023-04-14T04:08:39.710Z,3.15
2023-04-14T04:13:42.134Z,3.72
2023-04-14T04:18:47.111Z,4.22
2023-04-14T04:23:51.422Z,4.30
2023-04-14T04:28:54.663Z,4.00
2023-04-14T04:33:57.503Z,4.05
2023-04-14T04:38:59.312Z,4.57
2023-04-14T04:44:01.753Z,4.43
2023-04-14T04:49:03.562Z,4.07
2023-04-14T04:54:06.081Z,4.20
2023-04-14T04:59:07.711Z,4.68
2023-04-14T05:04:09.287Z,4.30
2023-04-14T05:09:10.803Z,4.13
2023-04-14T05:14:12.325Z,3.60
2023-04-14T05:19:13.981Z,4.72
2023-04-14T05:24:15.775Z,3.78
2023-04-14T05:29:17.265Z,4.00
2023-04-14T05:34:18.695Z,4.93
2023-04-14T05:39:20.139Z,4.75
2023-04-14T05:44:22.838Z,5.18
2023-04-14T05:49:24.375Z,5.03
2023-04-14T05:54:25.867Z,5.05
2023-04-14T05:59:27.444Z,5.03
2023-04-14T06:04:28.969Z,4.43
2023-04-14T06:09:31.661Z,5.05
2023-04-14T06:14:33.222Z,5.28
2023-04-14T06:19:34.765Z,5.00
2023-04-14T06:24:36.370Z,5.35
2023-04-14T06:29:37.992Z,4.85
2023-04-14T06:34:39.419Z,4.85
2023-04-14T06:39:41.169Z,5.65
2023-04-14T06:44:43.581Z,5.53
2023-04-14T06:49:45.112Z,5.25
2023-04-14T06:54:46.964Z,5.13
2023-04-14T06:59:48.474Z,5.90
2023-04-14T07:04:50.702Z,5.45
2023-04-14T07:09:52.321Z,6.93
2023-04-14T07:14:53.856Z,7.68
2023-04-14T07:19:55.508Z,8.07
2023-04-14T07:24:57.059Z,7.10
2023-04-14T07:29:58.686Z,7.13
2023-04-14T07:35:00.631Z,7.18
2023-04-14T07:40:02.494Z,6.07
2023-04-14T07:45:04.169Z,6.18
2023-04-14T07:50:06.484Z,5.32
2023-04-14T07:55:08.078Z,6.28
2023-04-14T08:00:10.189Z,6.18
2023-04-14T08:05:11.716Z,5.93
2023-04-14T08:10:13.279Z,6.05
2023-04-14T08:15:14.853Z,5.40
2023-04-14T08:20:16.471Z,5.10
2023-04-14T08:25:18.114Z,5.40
2023-04-14T08:30:19.683Z,4.90
2023-04-14T08:35:35.291Z,4.93
2023-04-14T08:40:43.016Z,4.78
2023-04-14T08:45:45.074Z,5.35
2023-04-14T08:50:56.295Z,3.95
2023-04-14T08:55:59.264Z,4.35
2023-04-14T09:01:03.350Z,3.90
2023-04-14T09:06:06.185Z,4.32
2023-04-14T09:11:08.168Z,4.22
2023-04-14T09:16:10.220Z,4.47
2023-04-14T09:21:31.270Z,3.72
2023-04-14T09:26:33.493Z,4.30
2023-04-14T09:31:35.332Z,3.90
2023-04-14T09:36:36.884Z,3.45
2023-04-14T09:41:47.218Z,3.17
2023-04-14T09:47:00.759Z,3.40
2023-04-14T09:52:11.423Z,3.00
2023-04-14T09:57:24.228Z,2.70
2023-04-14T10:02:27.191Z,3.58
2023-04-14T10:07:28.744Z,2.78
2023-04-14T10:12:30.194Z,2.80
2023-04-14T10:17:33.914Z,2.90
2023-04-14T10:22:36.310Z,2.45
2023-04-14T10:27:38.370Z,2.75
2023-04-14T10:32:40.895Z,3.40
2023-04-14T10:37:50.234Z,3.22
2023-04-14T10:42:53.217Z,2.45
2023-04-14T10:47:55.878Z,2.83
2023-04-14T10:52:58.948Z,2.72
2023-04-14T10:58:06.743Z,2.35
2023-04-14T11:03:11.151Z,2.65
2023-04-14T11:08:13.874Z,2.00
2023-04-14T11:13:17.529Z,1.90
2023-04-14T11:18:28.377Z,2.03
2023-04-14T11:23:29.876Z,1.95
2023-04-14T11:28:32.613Z,2.33
2023-04-14T11:33:37.090Z,2.20
2023-04-14T11:38:41.850Z,2.03
2023-04-14T11:43:47.035Z,2.65
2023-04-14T11:48:53.708Z,2.20
2023-04-14T11:53:56.841Z,1.80
2023-04-14T11:59:02.171Z,2.20
2023-04-14T12:04:04.321Z,1.70
2023-04-14T12:09:08.364Z,1.77
2023-04-14T12:14:09.924Z,1.90
2023-04-14T12:19:11.419Z,1.50
2023-04-14T12:24:12.896Z,1.40
2023-04-14T12:29:14.471Z,1.40
2023-04-14T12:34:18.330Z,1.58
2023-04-14T12:39:22.306Z,1.65
2023-04-14T12:44:24.652Z,1.50
2023-04-14T12:49:33.088Z,1.50
2023-04-14T12:54:47.649Z,1.85
2023-04-14T12:59:49.245Z,1.48
2023-04-14T13:04:50.792Z,1.52
2023-04-14T13:09:53.525Z,1.77
2023-04-14T13:14:54.985Z,1.70
2023-04-14T13:19:56.520Z,1.60
2023-04-14T13:25:00.518Z,1.65
2023-04-14T13:30:02.097Z,1.27
2023-04-14T13:35:04.093Z,1.52
2023-04-14T13:40:06.524Z,1.73
2023-04-14T13:45:08.552Z,1.50
2023-04-14T13:50:10.296Z,1.83
2023-04-14T13:55:11.999Z,1.63
2023-04-14T14:00:14.120Z,1.70
2023-04-14T14:05:15.794Z,1.67
2023-04-14T14:10:17.329Z,1.50
2023-04-14T14:15:18.979Z,1.60
2023-04-14T14:20:20.745Z,1.80
2023-04-14T14:25:22.250Z,1.98
2023-04-14T14:30:23.816Z,2.13
2023-04-14T14:35:25.353Z,1.75
2023-04-14T14:40:26.841Z,1.50
2023-04-14T14:45:30.843Z,1.20
2023-04-14T14:50:32.927Z,1.25
2023-04-14T14:55:35.053Z,1.58
2023-04-14T15:00:36.997Z,1.60
2023-04-14T15:05:38.566Z,1.42
2023-04-14T15:10:40.664Z,1.70
2023-04-14T15:15:42.650Z,1.55
2023-04-14T15:20:44.123Z,1.40
2023-04-14T15:25:45.662Z,1.40
2023-04-14T15:30:47.291Z,1.33
2023-04-14T15:35:48.763Z,1.42
2023-04-14T15:40:50.564Z,1.50
2023-04-14T15:45:52.395Z,1.75
2023-04-14T15:50:54.171Z,1.40
2023-04-14T15:55:55.635Z,1.35
2023-04-14T16:00:57.113Z,1.52
2023-04-14T16:06:02.648Z,1.55
2023-04-14T16:11:04.366Z,1.80
2023-04-14T16:16:06.577Z,1.50
2023-04-14T16:21:08.323Z,1.50
2023-04-14T16:26:09.885Z,1.23
2023-04-14T16:31:11.478Z,1.60
2023-04-14T16:36:13.231Z,1.20
2023-04-14T16:41:14.731Z,2.08
2023-04-14T16:46:16.730Z,1.60
2023-04-14T16:51:18.280Z,1.10
2023-04-14T16:56:20.964Z,1.40
2023-04-14T17:01:23.099Z,1.70
2023-04-14T17:06:24.826Z,1.48
2023-04-14T17:11:26.382Z,1.58
2023-04-14T17:16:28.895Z,1.30
2023-04-14T17:21:30.727Z,1.58
2023-04-14T17:26:32.405Z,1.42
2023-04-14T17:31:33.990Z,1.63
2023-04-14T17:36:35.509Z,1.40
2023-04-14T17:41:39.751Z,1.60
2023-04-14T17:46:41.577Z,1.33
2023-04-14T17:51:43.833Z,1.60
2023-04-14T17:56:47.647Z,1.60
2023-04-14T18:01:49.178Z,1.70
2023-04-14T18:06:51.261Z,1.50
2023-04-14T18:11:52.772Z,1.60
2023-04-14T18:16:54.764Z,1.83
2023-04-14T18:21:56.928Z,1.27
2023-04-14T18:26:59.239Z,1.58
2023-04-14T18:32:00.763Z,1.70
2023-04-14T18:37:03.957Z,1.88
2023-04-14T18:42:05.638Z,1.90
2023-04-14T18:47:07.219Z,1.50
2023-04-14T18:52:09.086Z,1.85
2023-04-14T18:57:10.782Z,1.52
2023-04-14T19:02:13.972Z,1.80
2023-04-14T19:07:15.813Z,2.10
2023-04-14T19:12:27.640Z,2.13
2023-04-14T19:17:33.583Z,2.00
2023-04-14T19:22:35.134Z,2.00
2023-04-14T19:27:38.626Z,2.00
2023-04-14T19:32:41.148Z,2.20
2023-04-14T19:37:42.648Z,2.30
2023-04-14T19:42:44.079Z,2.10
2023-04-14T19:47:45.691Z,2.10
2023-04-14T19:52:49.813Z,2.28
2023-04-14T19:57:51.374Z,2.45
2023-04-14T20:02:54.209Z,2.22
2023-04-14T20:07:55.877Z,2.78
2023-04-14T20:12:57.801Z,2.38
2023-04-14T20:17:59.372Z,2.60
2023-04-14T20:23:01.654Z,2.60
2023-04-14T20:28:04.163Z,2.47
2023-04-14T20:33:07.049Z,2.42
2023-04-14T20:38:08.818Z,2.60
2023-04-14T20:43:10.304Z,2.60
2023-04-14T20:48:13.273Z,3.20
2023-04-14T20:53:15.012Z,2.80
2023-04-14T20:58:16.815Z,2.45
2023-04-14T21:03:18.437Z,2.17
2023-04-14T21:08:20.168Z,2.60
2023-04-14T21:15:31.487Z,2.63
2023-04-14T21:18:43.144Z,3.25
2023-04-14T21:23:44.647Z,2.70
2023-04-14T21:28:46.273Z,3.28
2023-04-14T21:33:47.821Z,3.35
2023-04-14T21:38:49.606Z,3.15
2023-04-14T21:43:51.572Z,3.60
2023-04-14T21:48:53.084Z,4.38
2023-04-14T21:53:54.633Z,4.00
2023-04-14T21:58:56.345Z,4.10
2023-04-14T22:03:58.270Z,3.78
2023-04-14T22:09:00.230Z,4.20
2023-04-14T22:14:02.911Z,4.05
2023-04-14T22:19:04.856Z,4.20
2023-04-14T22:24:06.467Z,3.65
2023-04-14T22:29:09.249Z,4.00
2023-04-14T22:34:11.951Z,3.50
2023-04-14T22:39:13.484Z,3.80
2023-04-14T22:44:15.288Z,3.78
2023-04-14T22:49:16.844Z,3.88
2023-04-14T22:54:18.333Z,3.80
2023-04-14T22:59:19.736Z,3.25
2023-04-14T23:04:21.394Z,3.72
2023-04-14T23:09:23.146Z,3.10
2023-04-14T23:14:24.793Z,3.38
2023-04-14T23:19:26.752Z,3.45
2023-04-14T23:24:28.331Z,3.42
2023-04-14T23:29:29.960Z,3.60
2023-04-14T23:34:31.528Z,3.03
2023-04-14T23:39:33.455Z,4.25
2023-04-14T23:44:35.028Z,3.35
2023-04-14T23:49:36.633Z,3.53
2023-04-14T23:54:38.691Z,3.45
2023-04-14T23:59:40.188Z,3.22
